createdAt,value
2018-07-30T00:01:53.821Z,3.20
2018-07-30T00:04:22.101Z,3.40
2018-07-30T00:06:50.454Z,4.13
2018-07-30T00:09:18.692Z,3.43
2018-07-30T00:11:46.926Z,3.47
2018-07-30T00:14:15.242Z,3.50
2018-07-30T00:16:43.476Z,3.73
2018-07-30T00:19:11.731Z,3.87
2018-07-30T00:21:40.026Z,3.80
2018-07-30T00:24:08.369Z,4.07
2018-07-30T00:26:36.585Z,3.53
2018-07-30T00:29:04.889Z,3.87
2018-07-30T00:31:33.277Z,3.60
2018-07-30T00:34:01.520Z,3.60
2018-07-30T00:36:29.762Z,3.27
2018-07-30T00:38:58.365Z,3.17
2018-07-30T00:41:26.686Z,3.60
2018-07-30T00:43:54.953Z,3.33
2018-07-30T00:46:23.169Z,3.80
2018-07-30T00:48:51.487Z,3.50
2018-07-30T00:51:19.741Z,3.70
2018-07-30T00:53:48.085Z,3.83
2018-07-30T00:56:16.445Z,3.00
2018-07-30T00:58:44.755Z,3.10
2018-07-30T01:01:13.090Z,3.20
2018-07-30T01:03:41.344Z,3.53
2018-07-30T01:06:09.682Z,3.10
2018-07-30T01:08:37.941Z,3.60
2018-07-30T01:11:06.286Z,3.10
2018-07-30T01:13:34.577Z,3.40
2018-07-30T01:16:02.832Z,3.40
2018-07-30T01:18:31.158Z,3.80
2018-07-30T01:20:59.625Z,3.70
2018-07-30T01:23:27.834Z,3.63
2018-07-30T01:25:56.524Z,3.50
2018-07-30T01:28:24.773Z,3.30
2018-07-30T01:30:53.006Z,3.50
2018-07-30T01:33:21.297Z,3.10
2018-07-30T01:35:49.509Z,3.33
2018-07-30T01:38:17.840Z,3.83
2018-07-30T01:40:46.125Z,3.90
2018-07-30T01:43:14.537Z,3.30
2018-07-30T01:45:42.803Z,4.17
2018-07-30T01:48:11.082Z,3.37
2018-07-30T01:50:39.307Z,3.10
2018-07-30T01:53:07.557Z,3.60
2018-07-30T01:55:35.834Z,3.17
2018-07-30T01:58:04.106Z,3.73
2018-07-30T02:00:32.362Z,4.70
2018-07-30T02:03:01.526Z,3.70
2018-07-30T02:05:29.814Z,2.97
2018-07-30T02:07:58.109Z,3.03
2018-07-30T02:10:26.350Z,3.80
2018-07-30T02:12:54.583Z,3.30
2018-07-30T02:15:22.814Z,2.87
2018-07-30T02:17:51.141Z,2.97
2018-07-30T02:20:19.362Z,3.30
2018-07-30T02:22:47.681Z,3.60
2018-07-30T02:25:16.013Z,3.70
2018-07-30T02:27:44.349Z,3.40
2018-07-30T02:30:12.667Z,3.17
2018-07-30T02:32:40.973Z,3.07
2018-07-30T02:35:09.727Z,3.60
2018-07-30T02:37:37.938Z,3.13
2018-07-30T02:40:06.656Z,3.07
2018-07-30T02:42:34.933Z,3.77
2018-07-30T02:45:03.186Z,3.40
2018-07-30T02:47:31.449Z,3.50
2018-07-30T02:49:59.674Z,3.20
2018-07-30T02:52:28.013Z,3.27
2018-07-30T02:54:56.317Z,3.10
2018-07-30T02:57:24.594Z,3.07
2018-07-30T02:59:52.858Z,3.20
2018-07-30T03:02:21.198Z,3.73
2018-07-30T03:04:49.572Z,3.30
2018-07-30T03:07:17.793Z,3.30
2018-07-30T03:09:46.065Z,3.63
2018-07-30T03:12:14.334Z,3.47
2018-07-30T03:14:42.597Z,3.17
2018-07-30T03:17:10.808Z,3.57
2018-07-30T03:19:39.098Z,3.20
2018-07-30T03:22:07.351Z,3.83
2018-07-30T03:24:35.620Z,3.57
2018-07-30T03:27:03.863Z,3.90
2018-07-30T03:29:32.114Z,3.70
2018-07-30T03:32:00.468Z,3.53
2018-07-30T03:34:28.946Z,3.50
2018-07-30T03:36:57.197Z,3.60
2018-07-30T03:39:25.496Z,3.47
2018-07-30T03:41:53.793Z,3.67
2018-07-30T03:44:22.060Z,3.60
2018-07-30T03:46:50.375Z,3.63
2018-07-30T03:49:18.699Z,3.63
2018-07-30T03:51:46.963Z,3.13
2018-07-30T03:54:15.315Z,3.40
2018-07-30T03:56:43.617Z,3.50
2018-07-30T03:59:11.918Z,3.90
2018-07-30T04:01:40.210Z,3.53
2018-07-30T04:04:08.434Z,3.40
2018-07-30T04:06:36.669Z,3.97
2018-07-30T04:09:06.662Z,4.30
2018-07-30T04:11:34.985Z,4.43
2018-07-30T04:14:03.261Z,4.17
2018-07-30T04:16:35.968Z,4.43
2018-07-30T04:19:04.237Z,4.00
2018-07-30T04:21:32.443Z,4.57
2018-07-30T04:24:00.734Z,3.70
2018-07-30T04:26:28.989Z,4.20
2018-07-30T04:28:57.367Z,4.00
2018-07-30T04:31:25.722Z,4.87
2018-07-30T04:33:54.497Z,4.83
2018-07-30T04:36:22.767Z,5.07
2018-07-30T04:38:50.981Z,4.60
2018-07-30T04:41:19.865Z,5.10
2018-07-30T04:43:48.255Z,5.33
2018-07-30T04:46:16.514Z,4.80
2018-07-30T04:48:45.595Z,4.80
2018-07-30T04:51:13.949Z,5.47
2018-07-30T04:53:42.203Z,5.40
2018-07-30T04:56:10.477Z,5.20
2018-07-30T04:58:38.737Z,5.40
2018-07-30T05:01:07.021Z,5.67
2018-07-30T05:03:35.302Z,5.43
2018-07-30T05:06:03.626Z,5.27
2018-07-30T05:08:31.923Z,5.23
2018-07-30T05:11:00.195Z,5.90
2018-07-30T05:13:28.497Z,5.23
2018-07-30T05:15:56.961Z,4.90
2018-07-30T05:18:25.227Z,5.30
2018-07-30T05:20:53.593Z,4.63
2018-07-30T05:23:21.847Z,5.70
2018-07-30T05:25:50.385Z,4.97
2018-07-30T05:28:18.680Z,5.70
2018-07-30T05:30:46.959Z,5.03
2018-07-30T05:33:15.225Z,5.50
2018-07-30T05:35:43.449Z,5.03
2018-07-30T05:38:11.696Z,5.70
2018-07-30T05:40:39.979Z,5.67
2018-07-30T05:43:08.258Z,5.80
2018-07-30T05:45:36.542Z,5.57
2018-07-30T05:48:04.802Z,5.07
2018-07-30T05:50:33.066Z,5.37
2018-07-30T05:53:01.348Z,5.90
2018-07-30T05:55:29.630Z,5.10
2018-07-30T05:57:57.961Z,4.93
2018-07-30T06:00:26.306Z,5.50
2018-07-30T06:02:54.289Z,4.90
2018-07-30T06:05:22.586Z,5.40
2018-07-30T06:07:51.021Z,4.70
2018-07-30T06:10:19.319Z,5.33
2018-07-30T06:12:47.614Z,4.47
2018-07-30T06:15:15.945Z,5.03
2018-07-30T06:17:44.371Z,4.47
2018-07-30T06:20:12.697Z,3.93
2018-07-30T06:22:41.033Z,4.60
2018-07-30T06:25:09.306Z,4.73
2018-07-30T06:27:37.644Z,4.73
2018-07-30T06:30:07.894Z,4.60
2018-07-30T06:32:36.430Z,4.90
2018-07-30T06:35:04.770Z,4.50
2018-07-30T06:37:33.041Z,4.70
2018-07-30T06:40:01.449Z,4.60
2018-07-30T06:42:29.741Z,4.63
2018-07-30T06:44:58.454Z,4.90
2018-07-30T06:47:26.859Z,4.27
2018-07-30T06:49:55.119Z,4.27
2018-07-30T06:52:23.341Z,4.87
2018-07-30T06:54:51.626Z,4.70
2018-07-30T06:57:19.961Z,5.43
2018-07-30T06:59:48.193Z,4.80
2018-07-30T07:02:16.434Z,4.97
2018-07-30T07:04:44.813Z,5.17
2018-07-30T07:07:13.057Z,4.83
2018-07-30T07:09:41.386Z,4.13
2018-07-30T07:12:09.774Z,4.50
2018-07-30T07:14:38.347Z,5.30
2018-07-30T07:17:07.245Z,4.57
2018-07-30T07:19:35.533Z,4.63
2018-07-30T07:22:03.901Z,4.30
2018-07-30T07:24:32.090Z,4.60
2018-07-30T07:27:00.450Z,5.33
2018-07-30T07:29:28.673Z,4.40
2018-07-30T07:31:57.020Z,4.57
2018-07-30T07:34:25.378Z,4.33
2018-07-30T07:36:53.353Z,5.20
2018-07-30T07:39:21.644Z,4.67
2018-07-30T07:41:49.902Z,4.40
2018-07-30T07:44:18.197Z,4.37
2018-07-30T07:46:46.446Z,5.40
2018-07-30T07:49:14.762Z,5.50
2018-07-30T07:51:43.059Z,4.63
2018-07-30T07:54:11.282Z,5.27
2018-07-30T07:56:39.651Z,4.57
2018-07-30T07:59:07.904Z,4.60
2018-07-30T08:01:36.185Z,4.80
2018-07-30T08:04:04.438Z,4.23
2018-07-30T08:06:32.686Z,4.20
2018-07-30T08:09:00.958Z,4.23
2018-07-30T08:11:29.282Z,4.33
2018-07-30T08:13:57.558Z,4.40
2018-07-30T08:16:25.964Z,6.17
2018-07-30T08:18:54.360Z,4.97
2018-07-30T08:21:22.593Z,4.80
2018-07-30T08:23:50.915Z,5.80
2018-07-30T08:26:19.238Z,5.50
2018-07-30T08:28:47.605Z,4.80
2018-07-30T08:31:15.930Z,4.83
2018-07-30T08:33:44.518Z,5.30
2018-07-30T08:36:12.826Z,4.20
2018-07-30T08:38:41.133Z,4.30
2018-07-30T08:41:09.596Z,4.03
2018-07-30T08:43:38.048Z,4.10
2018-07-30T08:46:06.416Z,3.53
2018-07-30T08:48:34.710Z,3.40
2018-07-30T08:51:03.070Z,3.50
2018-07-30T08:53:31.341Z,2.77
2018-07-30T08:55:59.574Z,3.07
2018-07-30T08:58:27.977Z,2.70
2018-07-30T09:00:56.269Z,3.27
2018-07-30T09:03:24.637Z,3.03
2018-07-30T09:05:52.982Z,3.30
2018-07-30T09:08:21.359Z,2.60
2018-07-30T09:10:49.706Z,2.70
2018-07-30T09:13:17.944Z,2.90
2018-07-30T09:15:46.277Z,2.80
2018-07-30T09:18:14.636Z,2.90
2018-07-30T09:20:42.867Z,3.00
2018-07-30T09:23:11.163Z,3.63
2018-07-30T09:25:39.442Z,3.03
2018-07-30T09:28:07.789Z,3.13
2018-07-30T09:30:36.072Z,2.57
2018-07-30T09:33:04.412Z,2.23
2018-07-30T09:35:32.766Z,2.60
2018-07-30T09:38:01.180Z,2.60
2018-07-30T09:40:29.491Z,2.30
2018-07-30T09:42:57.809Z,2.60
2018-07-30T09:45:26.134Z,3.10
2018-07-30T09:47:54.393Z,2.17
2018-07-30T09:50:22.641Z,2.30
2018-07-30T09:52:50.964Z,2.00
2018-07-30T09:55:19.279Z,2.73
2018-07-30T09:57:47.513Z,2.30
2018-07-30T10:00:19.976Z,2.07
2018-07-30T10:02:48.264Z,2.80
2018-07-30T10:05:16.563Z,2.30
2018-07-30T10:07:44.873Z,2.43
2018-07-30T10:10:13.386Z,2.87
2018-07-30T10:12:41.694Z,2.37
2018-07-30T10:15:09.983Z,2.07
2018-07-30T10:17:38.232Z,1.93
2018-07-30T10:20:06.598Z,1.97
2018-07-30T10:22:34.876Z,2.00
2018-07-30T10:25:03.106Z,2.40
2018-07-30T10:27:31.329Z,2.10
2018-07-30T10:29:59.729Z,2.17
2018-07-30T10:32:27.973Z,2.30
2018-07-30T10:34:56.306Z,2.23
2018-07-30T10:37:24.683Z,2.00
2018-07-30T10:39:53.014Z,2.20
2018-07-30T10:42:21.210Z,2.33
2018-07-30T10:44:49.471Z,2.00
2018-07-30T10:47:17.724Z,2.27
2018-07-30T10:49:46.431Z,2.30
2018-07-30T10:52:14.717Z,2.27
2018-07-30T10:54:43.046Z,2.00
2018-07-30T10:57:11.481Z,1.90
2018-07-30T10:59:39.706Z,2.30
2018-07-30T11:02:08.077Z,2.20
2018-07-30T11:04:39.125Z,2.40
2018-07-30T11:07:08.046Z,2.33
2018-07-30T11:09:36.432Z,2.40
2018-07-30T11:12:04.840Z,2.27
2018-07-30T11:14:33.151Z,1.97
2018-07-30T11:17:01.829Z,2.50
2018-07-30T11:19:30.158Z,2.40
2018-07-30T11:21:58.396Z,1.97
2018-07-30T11:24:26.658Z,1.90
2018-07-30T11:26:54.900Z,2.10
2018-07-30T11:29:23.110Z,1.77
2018-07-30T11:31:51.357Z,2.10
2018-07-30T11:34:19.585Z,2.10
2018-07-30T11:36:48.105Z,2.20
2018-07-30T11:39:16.400Z,2.33
2018-07-30T11:41:44.843Z,2.60
2018-07-30T11:44:13.107Z,2.37
2018-07-30T11:46:41.354Z,3.00
2018-07-30T11:49:09.621Z,2.83
2018-07-30T11:51:37.878Z,2.07
2018-07-30T11:54:06.294Z,2.10
2018-07-30T11:56:34.473Z,2.33
2018-07-30T11:59:02.702Z,2.10
2018-07-30T12:01:31.245Z,2.10
2018-07-30T12:03:59.839Z,1.93
2018-07-30T12:06:28.055Z,2.10
2018-07-30T12:08:56.389Z,2.13
2018-07-30T12:11:24.631Z,2.60
2018-07-30T12:13:52.962Z,2.10
2018-07-30T12:16:21.332Z,2.07
2018-07-30T12:18:49.621Z,2.27
2018-07-30T12:21:17.880Z,2.00
2018-07-30T12:23:46.201Z,2.27
2018-07-30T12:26:14.618Z,2.27
2018-07-30T12:28:42.866Z,2.10
2018-07-30T12:31:11.153Z,1.80
2018-07-30T12:33:39.447Z,2.13
2018-07-30T12:36:07.831Z,1.77
2018-07-30T12:38:36.146Z,1.87
2018-07-30T12:41:04.382Z,2.20
2018-07-30T12:43:32.784Z,1.70
2018-07-30T12:46:00.997Z,1.87
2018-07-30T12:48:29.293Z,1.50
2018-07-30T12:50:57.539Z,1.90
2018-07-30T12:53:25.826Z,1.80
2018-07-30T12:55:54.238Z,1.80
2018-07-30T12:58:22.478Z,1.90
2018-07-30T13:00:50.773Z,1.50
2018-07-30T13:03:18.839Z,1.53
2018-07-30T13:05:47.066Z,1.80
2018-07-30T13:08:15.558Z,1.50
2018-07-30T13:10:43.778Z,1.80
2018-07-30T13:13:12.054Z,2.03
2018-07-30T13:15:40.426Z,2.00
2018-07-30T13:18:08.747Z,1.93
2018-07-30T13:20:37.042Z,1.60
2018-07-30T13:23:05.289Z,1.50
2018-07-30T13:25:33.594Z,1.77
2018-07-30T13:28:01.887Z,1.50
2018-07-30T13:30:30.211Z,1.70
2018-07-30T13:32:58.973Z,1.33
2018-07-30T13:35:27.317Z,1.70
2018-07-30T13:37:55.547Z,1.83
2018-07-30T13:40:23.785Z,2.00
2018-07-30T13:42:52.107Z,1.50
2018-07-30T13:45:20.361Z,1.67
2018-07-30T13:47:48.813Z,1.50
2018-07-30T13:50:17.063Z,1.80
2018-07-30T13:52:45.319Z,1.90
2018-07-30T13:55:13.607Z,1.70
2018-07-30T13:57:41.845Z,1.83
2018-07-30T14:00:11.114Z,1.90
2018-07-30T14:02:39.746Z,2.00
2018-07-30T14:05:08.792Z,1.43
2018-07-30T14:07:37.226Z,1.73
2018-07-30T14:10:06.365Z,2.30
2018-07-30T14:12:34.708Z,1.77
2018-07-30T14:15:03.010Z,1.80
2018-07-30T14:17:31.317Z,1.70
2018-07-30T14:19:59.681Z,2.00
2018-07-30T14:22:27.961Z,2.03
2018-07-30T14:24:56.646Z,1.60
2018-07-30T14:27:24.929Z,1.80
2018-07-30T14:29:53.210Z,1.97
2018-07-30T14:32:21.611Z,1.80
2018-07-30T14:34:49.959Z,1.63
2018-07-30T14:37:18.214Z,1.67
2018-07-30T14:39:46.449Z,2.10
2018-07-30T14:42:14.771Z,2.10
2018-07-30T14:44:43.099Z,2.37
2018-07-30T14:47:11.497Z,1.77
2018-07-30T14:49:39.791Z,1.70
2018-07-30T14:52:07.764Z,1.90
2018-07-30T14:54:36.118Z,2.10
2018-07-30T14:57:04.398Z,2.00
2018-07-30T14:59:32.735Z,2.10
2018-07-30T15:02:00.949Z,1.87
2018-07-30T15:04:29.190Z,1.60
2018-07-30T15:06:57.430Z,1.87
2018-07-30T15:09:25.760Z,2.00
2018-07-30T15:11:54.025Z,1.83
2018-07-30T15:14:22.345Z,2.20
2018-07-30T15:16:50.666Z,1.57
2018-07-30T15:19:18.994Z,1.53
2018-07-30T15:21:47.293Z,2.03
2018-07-30T15:24:15.599Z,1.30
2018-07-30T15:26:43.885Z,1.30
2018-07-30T15:29:12.115Z,1.60
2018-07-30T15:31:40.415Z,1.70
2018-07-30T15:34:08.709Z,1.40
2018-07-30T15:36:37.109Z,1.40
2018-07-30T15:39:08.124Z,1.60
2018-07-30T15:41:36.380Z,1.30
2018-07-30T15:44:04.797Z,1.43
2018-07-30T15:46:33.038Z,1.80
2018-07-30T15:49:01.357Z,1.70
2018-07-30T15:51:29.661Z,1.60
2018-07-30T15:53:57.888Z,1.20
2018-07-30T15:56:26.473Z,1.40
2018-07-30T15:58:54.827Z,1.40
2018-07-30T16:01:23.091Z,1.43
2018-07-30T16:03:51.416Z,1.33
2018-07-30T16:06:19.677Z,1.33
2018-07-30T16:08:48.075Z,1.00
2018-07-30T16:11:16.357Z,1.30
2018-07-30T16:13:44.681Z,2.30
2018-07-30T16:16:12.974Z,1.43
2018-07-30T16:18:41.245Z,1.37
2018-07-30T16:21:09.470Z,1.50
2018-07-30T16:23:37.739Z,1.30
2018-07-30T16:26:06.013Z,1.57
2018-07-30T16:28:34.338Z,1.40
2018-07-30T16:31:02.680Z,1.67
2018-07-30T16:33:30.892Z,1.50
2018-07-30T16:35:59.215Z,1.50
2018-07-30T16:38:27.535Z,1.33
2018-07-30T16:40:55.893Z,1.70
2018-07-30T16:43:24.201Z,1.67
2018-07-30T16:45:52.504Z,1.30
2018-07-30T16:48:20.749Z,2.00
2018-07-30T16:50:49.033Z,1.57
2018-07-30T16:53:17.640Z,2.03
2018-07-30T16:55:46.013Z,2.23
2018-07-30T16:58:14.305Z,1.73
2018-07-30T17:00:42.535Z,1.70
2018-07-30T17:03:10.959Z,2.00
2018-07-30T17:05:39.162Z,2.23
2018-07-30T17:08:07.438Z,1.50
2018-07-30T17:10:35.725Z,1.70
2018-07-30T17:13:04.022Z,1.30
2018-07-30T17:15:32.309Z,1.47
2018-07-30T17:18:00.698Z,1.83
2018-07-30T17:20:28.923Z,1.60
2018-07-30T17:22:57.269Z,2.03
2018-07-30T17:25:25.516Z,1.97
2018-07-30T17:27:53.794Z,1.50
2018-07-30T17:30:22.081Z,1.73
2018-07-30T17:32:50.432Z,1.60
2018-07-30T17:35:18.778Z,1.80
2018-07-30T17:37:47.191Z,1.80
2018-07-30T17:40:15.527Z,1.90
2018-07-30T17:42:43.831Z,1.47
2018-07-30T17:45:13.565Z,1.97
2018-07-30T17:47:42.539Z,2.17
2018-07-30T17:50:11.090Z,2.80
2018-07-30T17:52:39.367Z,1.60
2018-07-30T17:55:07.814Z,1.63
2018-07-30T17:57:36.279Z,1.60
2018-07-30T18:00:06.052Z,1.40
2018-07-30T18:02:34.441Z,1.60
2018-07-30T18:05:02.910Z,1.20
2018-07-30T18:07:31.293Z,1.40
2018-07-30T18:09:59.798Z,1.80
2018-07-30T18:12:28.329Z,1.50
2018-07-30T18:14:56.677Z,2.00
2018-07-30T18:17:25.098Z,3.03
2018-07-30T18:19:53.504Z,3.40
2018-07-30T18:22:21.863Z,3.03
2018-07-30T18:24:50.310Z,2.10
2018-07-30T18:27:18.623Z,2.90
2018-07-30T18:29:46.966Z,1.80
2018-07-30T18:32:15.619Z,1.93
2018-07-30T18:34:44.276Z,1.60
2018-07-30T18:37:12.551Z,1.40
2018-07-30T18:39:40.913Z,1.43
2018-07-30T18:42:09.133Z,1.20
2018-07-30T18:44:37.500Z,1.27
2018-07-30T18:47:05.885Z,1.53
2018-07-30T18:49:34.270Z,1.63
2018-07-30T18:52:02.551Z,1.30
2018-07-30T18:54:30.978Z,1.60
2018-07-30T18:56:59.827Z,1.47
2018-07-30T18:59:28.281Z,1.20
2018-07-30T19:01:56.670Z,1.97
2018-07-30T19:04:25.024Z,1.60
2018-07-30T19:06:53.609Z,1.80
2018-07-30T19:09:21.902Z,2.13
2018-07-30T19:11:50.274Z,1.63
2018-07-30T19:14:18.529Z,2.00
2018-07-30T19:16:51.042Z,1.73
2018-07-30T19:19:19.315Z,1.60
2018-07-30T19:21:47.783Z,2.27
2018-07-30T19:24:16.319Z,1.70
2018-07-30T19:26:44.593Z,1.60
2018-07-30T19:29:12.917Z,1.93
2018-07-30T19:31:41.245Z,1.60
2018-07-30T19:34:09.577Z,1.60
2018-07-30T19:36:38.340Z,1.47
2018-07-30T19:39:09.382Z,1.77
2018-07-30T19:41:38.087Z,1.47
2018-07-30T19:44:06.410Z,2.10
2018-07-30T19:46:34.793Z,2.17
2018-07-30T19:49:03.305Z,1.70
2018-07-30T19:51:31.607Z,1.83
2018-07-30T19:53:59.845Z,1.90
2018-07-30T19:56:28.190Z,1.90
2018-07-30T19:58:56.616Z,1.87
2018-07-30T20:01:24.802Z,1.70
2018-07-30T20:03:53.290Z,1.73
2018-07-30T20:06:21.574Z,1.60
2018-07-30T20:08:49.906Z,1.33
2018-07-30T20:11:18.202Z,1.63
2018-07-30T20:13:48.287Z,1.40
2018-07-30T20:16:16.548Z,1.90
2018-07-30T20:18:44.801Z,2.50
2018-07-30T20:21:13.151Z,1.80
2018-07-30T20:23:41.433Z,1.63
2018-07-30T20:26:10.119Z,1.50
2018-07-30T20:28:38.421Z,1.80
2018-07-30T20:31:07.285Z,1.43
2018-07-30T20:33:35.738Z,1.73
2018-07-30T20:36:04.030Z,1.30
2018-07-30T20:38:32.301Z,1.30
2018-07-30T20:41:00.646Z,1.30
2018-07-30T20:43:28.953Z,1.37
2018-07-30T20:45:57.202Z,2.07
2018-07-30T20:48:25.577Z,1.43
2018-07-30T20:50:53.794Z,1.30
2018-07-30T20:53:22.024Z,1.70
2018-07-30T20:55:50.249Z,1.27
2018-07-30T20:58:18.507Z,1.27
2018-07-30T21:00:46.735Z,1.60
2018-07-30T21:03:14.742Z,1.63
2018-07-30T21:05:43.969Z,1.57
2018-07-30T21:08:14.266Z,1.73
2018-07-30T21:10:43.831Z,1.57
2018-07-30T21:13:12.488Z,1.87
2018-07-30T21:15:40.950Z,1.90
2018-07-30T21:18:09.228Z,1.50
2018-07-30T21:20:37.458Z,1.50
2018-07-30T21:23:05.689Z,1.77
2018-07-30T21:25:33.992Z,1.70
2018-07-30T21:28:02.195Z,1.67
2018-07-30T21:30:30.474Z,1.50
2018-07-30T21:32:58.763Z,1.60
2018-07-30T21:35:27.225Z,1.80
2018-07-30T21:37:55.436Z,1.90
2018-07-30T21:40:23.730Z,1.50
2018-07-30T21:42:52.063Z,1.70
2018-07-30T21:45:20.296Z,1.73
2018-07-30T21:47:48.590Z,1.60
2018-07-30T21:50:17.137Z,1.80
2018-07-30T21:52:45.669Z,1.73
2018-07-30T21:55:13.940Z,1.40
2018-07-30T21:57:42.205Z,1.93
2018-07-30T22:00:14.243Z,1.87
2018-07-30T22:02:43.110Z,2.00
2018-07-30T22:05:12.926Z,1.90
2018-07-30T22:07:41.127Z,2.07
2018-07-30T22:10:09.813Z,2.23
2018-07-30T22:12:38.157Z,2.90
2018-07-30T22:15:06.621Z,2.80
2018-07-30T22:17:35.047Z,2.67
2018-07-30T22:20:03.670Z,2.80
2018-07-30T22:22:31.945Z,2.37
2018-07-30T22:25:00.210Z,2.90
2018-07-30T22:27:28.637Z,3.37
2018-07-30T22:29:56.889Z,3.20
2018-07-30T22:32:25.449Z,2.73
2018-07-30T22:34:53.423Z,3.20
2018-07-30T22:37:21.736Z,2.70
2018-07-30T22:39:49.961Z,2.60
2018-07-30T22:42:18.261Z,2.30
2018-07-30T22:44:46.564Z,2.37
2018-07-30T22:47:14.809Z,3.20
2018-07-30T22:49:43.138Z,2.90
2018-07-30T22:52:11.434Z,3.10
2018-07-30T22:54:39.823Z,3.07
2018-07-30T22:57:08.079Z,3.27
2018-07-30T22:59:36.339Z,2.80
2018-07-30T23:02:04.622Z,3.43
2018-07-30T23:04:32.859Z,3.27
2018-07-30T23:07:01.188Z,3.70
2018-07-30T23:09:29.421Z,3.97
2018-07-30T23:11:57.652Z,3.40
2018-07-30T23:14:25.958Z,3.73
2018-07-30T23:16:54.233Z,3.40
2018-07-30T23:19:22.512Z,3.53
2018-07-30T23:21:50.844Z,3.37
2018-07-30T23:24:19.129Z,3.57
2018-07-30T23:26:47.397Z,3.67
2018-07-30T23:29:16.103Z,3.40
2018-07-30T23:31:44.421Z,3.37
2018-07-30T23:34:12.663Z,4.00
2018-07-30T23:36:41.019Z,3.40
2018-07-30T23:39:10.705Z,3.50
2018-07-30T23:41:38.941Z,3.50
2018-07-30T23:44:07.481Z,3.30
2018-07-30T23:46:35.696Z,3.23
2018-07-30T23:49:04.092Z,3.17
2018-07-30T23:51:32.313Z,3.30
2018-07-30T23:54:00.630Z,3.60
2018-07-30T23:56:29.306Z,2.93
2018-07-30T23:58:57.649Z,2.50
